sensor_id;sensor_type;location;lat;lon;timestamp;pressure;altitude;pressure_sealevel;temperature;humidity
41334;BME280;27078;46.428;6.256;2023-02-11T00:00:22;98447.91;;;-0.51;89.96
41334;BME280;27078;46.428;6.256;2023-02-11T00:02:47;98448.81;;;-0.54;92.62
41334;BME280;27078;46.428;6.256;2023-02-11T00:05:13;98441.91;;;-0.55;92.33
41334;BME280;27078;46.428;6.256;2023-02-11T00:07:39;98442.78;;;-0.56;92.44
41334;BME280;27078;46.428;6.256;2023-02-11T00:10:05;98434.16;;;-0.59;94.52
41334;BME280;27078;46.428;6.256;2023-02-11T00:12:33;98436.81;;;-0.64;96.09
41334;BME280;27078;46.428;6.256;2023-02-11T00:14:59;98436.81;;;-0.64;96.88
41334;BME280;27078;46.428;6.256;2023-02-11T00:17:24;98436.88;;;-0.70;97.91
41334;BME280;27078;46.428;6.256;2023-02-11T00:19:51;98446.41;;;-0.68;99.01
41334;BME280;27078;46.428;6.256;2023-02-11T00:22:16;98435.25;;;-0.77;99.24
41334;BME280;27078;46.428;6.256;2023-02-11T00:24:42;98439.66;;;-0.84;98.79
41334;BME280;27078;46.428;6.256;2023-02-11T00:27:07;98438.81;;;-0.85;100.00
41334;BME280;27078;46.428;6.256;2023-02-11T00:29:32;98428.44;;;-0.85;100.00
41334;BME280;27078;46.428;6.256;2023-02-11T00:31:57;98431.03;;;-0.85;100.00
41334;BME280;27078;46.428;6.256;2023-02-11T00:34:23;98432.72;;;-0.85;97.97
41334;BME280;27078;46.428;6.256;2023-02-11T00:36:49;98431.06;;;-0.89;98.61
41334;BME280;27078;46.428;6.256;2023-02-11T00:39:14;98427.63;;;-0.91;99.64
41334;BME280;27078;46.428;6.256;2023-02-11T00:41:40;98413.00;;;-0.97;99.98
41334;BME280;27078;46.428;6.256;2023-02-11T00:44:05;98422.50;;;-0.97;100.00
41334;BME280;27078;46.428;6.256;2023-02-11T00:46:31;98420.75;;;-0.95;100.00
41334;BME280;27078;46.428;6.256;2023-02-11T00:48:56;98413.81;;;-0.93;100.00
41334;BME280;27078;46.428;6.256;2023-02-11T00:51:25;98416.38;;;-0.92;100.00
41334;BME280;27078;46.428;6.256;2023-02-11T00:53:51;98405.09;;;-0.89;100.00
41334;BME280;27078;46.428;6.256;2023-02-11T00:56:16;98406.00;;;-0.92;100.00
41334;BME280;27078;46.428;6.256;2023-02-11T00:58:42;98412.03;;;-0.91;100.00
41334;BME280;27078;46.428;6.256;2023-02-11T01:01:07;98402.63;;;-0.97;100.00
41334;BME280;27078;46.428;6.256;2023-02-11T01:03:33;98397.38;;;-0.94;99.05
41334;BME280;27078;46.428;6.256;2023-02-11T01:05:59;98401.75;;;-0.97;98.94
41334;BME280;27078;46.428;6.256;2023-02-11T01:08:24;98406.94;;;-0.97;98.12
41334;BME280;27078;46.428;6.256;2023-02-11T01:10:57;98391.34;;;-0.97;97.20
41334;BME280;27078;46.428;6.256;2023-02-11T01:13:23;98404.38;;;-0.99;96.35
41334;BME280;27078;46.428;6.256;2023-02-11T01:15:49;98406.19;;;-1.06;95.76
41334;BME280;27078;46.428;6.256;2023-02-11T01:18:14;98406.19;;;-1.07;96.16
41334;BME280;27078;46.428;6.256;2023-02-11T01:20:39;98407.09;;;-1.10;94.83
41334;BME280;27078;46.428;6.256;2023-02-11T01:23:05;98411.38;;;-1.09;94.20
41334;BME280;27078;46.428;6.256;2023-02-11T01:25:30;98407.09;;;-1.10;94.20
41334;BME280;27078;46.428;6.256;2023-02-11T01:27:55;98405.47;;;-1.20;93.18
41334;BME280;27078;46.428;6.256;2023-02-11T01:30:21;98411.56;;;-1.26;93.94
41334;BME280;27078;46.428;6.256;2023-02-11T01:32:46;98404.69;;;-1.28;91.95
41334;BME280;27078;46.428;6.256;2023-02-11T01:35:11;98403.84;;;-1.32;91.48
41334;BME280;27078;46.428;6.256;2023-02-11T01:37:37;98405.59;;;-1.32;90.32
41334;BME280;27078;46.428;6.256;2023-02-11T01:40:10;98398.66;;;-1.29;89.91
41334;BME280;27078;46.428;6.256;2023-02-11T01:42:36;98393.41;;;-1.26;89.39
41334;BME280;27078;46.428;6.256;2023-02-11T01:48:05;98398.59;;;-1.24;89.87
41334;BME280;27078;46.428;6.256;2023-02-11T01:50:32;98404.66;;;-1.25;94.21
41334;BME280;27078;46.428;6.256;2023-02-11T01:52:58;98400.38;;;-1.29;93.96
41334;BME280;27078;46.428;6.256;2023-02-11T01:55:44;98397.78;;;-1.29;95.44
41334;BME280;27078;46.428;6.256;2023-02-11T01:58:30;98400.41;;;-1.32;95.21
41334;BME280;27078;46.428;6.256;2023-02-11T02:00:57;98394.38;;;-1.31;95.09
41334;BME280;27078;46.428;6.256;2023-02-11T02:03:24;98394.31;;;-1.30;94.84
41334;BME280;27078;46.428;6.256;2023-02-11T02:08:35;98394.25;;;-1.24;92.00
41334;BME280;27078;46.428;6.256;2023-02-11T02:11:03;98395.94;;;-1.19;90.99
41334;BME280;27078;46.428;6.256;2023-02-11T02:13:31;98385.56;;;-1.18;91.07
41334;BME280;27078;46.428;6.256;2023-02-11T02:16:00;98391.63;;;-1.19;90.12
41334;BME280;27078;46.428;6.256;2023-02-11T02:21:36;98385.63;;;-1.23;91.59
41334;BME280;27078;46.428;6.256;2023-02-11T02:24:37;98381.31;;;-1.25;91.45
41334;BME280;27078;46.428;6.256;2023-02-11T02:37:42;98372.06;;;-1.48;90.97
41334;BME280;27078;46.428;6.256;2023-02-11T02:40:21;98366.88;;;-1.49;92.53
41334;BME280;27078;46.428;6.256;2023-02-11T02:42:48;98362.59;;;-1.52;94.71
41334;BME280;27078;46.428;6.256;2023-02-11T02:45:15;98365.13;;;-1.49;96.37
41334;BME280;27078;46.428;6.256;2023-02-11T02:47:40;98361.69;;;-1.51;96.81
41334;BME280;27078;46.428;6.256;2023-02-11T02:50:07;98358.25;;;-1.51;97.44
41334;BME280;27078;46.428;6.256;2023-02-11T02:52:41;98355.66;;;-1.50;100.00
41334;BME280;27078;46.428;6.256;2023-02-11T03:00:58;98354.81;;;-1.53;99.89
41334;BME280;27078;46.428;6.256;2023-02-11T03:06:10;98353.22;;;-1.65;98.62
41334;BME280;27078;46.428;6.256;2023-02-11T03:08:41;98353.19;;;-1.62;98.08
41334;BME280;27078;46.428;6.256;2023-02-11T03:11:09;98348.78;;;-1.55;95.83
41334;BME280;27078;46.428;6.256;2023-02-11T03:13:38;98345.31;;;-1.53;94.26
41334;BME280;27078;46.428;6.256;2023-02-11T03:16:12;98341.91;;;-1.58;95.91
41334;BME280;27078;46.428;6.256;2023-02-11T03:18:41;98339.34;;;-1.59;97.97
41334;BME280;27078;46.428;6.256;2023-02-11T03:21:09;98341.91;;;-1.58;99.07
41334;BME280;27078;46.428;6.256;2023-02-11T03:23:43;98338.41;;;-1.54;98.24
41334;BME280;27078;46.428;6.256;2023-02-11T03:26:24;98340.91;;;-1.43;98.85
41334;BME280;27078;46.428;6.256;2023-02-11T03:31:54;98338.25;;;-1.38;98.46
41334;BME280;27078;46.428;6.256;2023-02-11T03:34:29;98331.38;;;-1.42;97.14
41334;BME280;27078;46.428;6.256;2023-02-11T03:37:04;98335.72;;;-1.45;96.82
41334;BME280;27078;46.428;6.256;2023-02-11T03:39:36;98336.66;;;-1.52;95.61
41334;BME280;27078;46.428;6.256;2023-02-11T03:42:03;98328.06;;;-1.57;96.45
41334;BME280;27078;46.428;6.256;2023-02-11T03:44:33;98325.56;;;-1.65;95.95
41334;BME280;27078;46.428;6.256;2023-02-11T03:47:02;98322.16;;;-1.70;96.44
41334;BME280;27078;46.428;6.256;2023-02-11T03:49:32;98321.28;;;-1.67;98.70
41334;BME280;27078;46.428;6.256;2023-02-11T03:52:01;98324.78;;;-1.74;97.67
41334;BME280;27078;46.428;6.256;2023-02-11T03:54:29;98315.44;;;-1.88;100.00
41334;BME280;27078;46.428;6.256;2023-02-11T03:56:57;98321.56;;;-1.96;99.47
41334;BME280;27078;46.428;6.256;2023-02-11T03:59:24;98320.72;;;-1.98;100.00
41334;BME280;27078;46.428;6.256;2023-02-11T04:01:49;98311.25;;;-2.02;100.00
41334;BME280;27078;46.428;6.256;2023-02-11T04:04:15;98318.28;;;-2.18;100.00
41334;BME280;27078;46.428;6.256;2023-02-11T04:06:40;98327.16;;;-2.50;100.00
41334;BME280;27078;46.428;6.256;2023-02-11T04:09:07;98323.75;;;-2.57;100.00
41334;BME280;27078;46.428;6.256;2023-02-11T04:11:33;98329.66;;;-2.39;100.00
41334;BME280;27078;46.428;6.256;2023-02-11T04:13:58;98321.75;;;-2.22;100.00
41334;BME280;27078;46.428;6.256;2023-02-11T04:16:23;98321.66;;;-2.10;100.00
41334;BME280;27078;46.428;6.256;2023-02-11T04:18:49;98314.75;;;-2.08;100.00
41334;BME280;27078;46.428;6.256;2023-02-11T04:21:14;98309.56;;;-2.05;100.00
41334;BME280;27078;46.428;6.256;2023-02-11T04:23:39;98312.94;;;-2.00;100.00
41334;BME280;27078;46.428;6.256;2023-02-11T04:26:05;98309.47;;;-1.97;100.00
41334;BME280;27078;46.428;6.256;2023-02-11T04:28:30;98312.06;;;-1.94;100.00
41334;BME280;27078;46.428;6.256;2023-02-11T04:30:56;98307.72;;;-1.92;100.00
41334;BME280;27078;46.428;6.256;2023-02-11T04:33:22;98307.69;;;-1.91;100.00
41334;BME280;27078;46.428;6.256;2023-02-11T04:35:48;98307.72;;;-1.92;100.00
41334;BME280;27078;46.428;6.256;2023-02-11T04:38:15;98301.69;;;-1.94;100.00
41334;BME280;27078;46.428;6.256;2023-02-11T04:40:40;98307.72;;;-1.94;100.00
41334;BME280;27078;46.428;6.256;2023-02-11T04:43:06;98309.50;;;-1.99;100.00
41334;BME280;27078;46.428;6.256;2023-02-11T04:45:32;98317.25;;;-1.97;100.00
41334;BME280;27078;46.428;6.256;2023-02-11T04:47:58;98319.03;;;-2.02;100.00
41334;BME280;27078;46.428;6.256;2023-02-11T04:50:23;98306.91;;;-2.00;100.00
41334;BME280;27078;46.428;6.256;2023-02-11T04:52:48;98300.00;;;-1.98;100.00
41334;BME280;27078;46.428;6.256;2023-02-11T04:55:14;98305.97;;;-1.95;100.00
41334;BME280;27078;46.428;6.256;2023-02-11T04:57:39;98300.84;;;-1.98;100.00
41334;BME280;27078;46.428;6.256;2023-02-11T05:00:05;98297.41;;;-1.97;100.00
41334;BME280;27078;46.428;6.256;2023-02-11T05:02:31;98304.31;;;-1.99;100.00
41334;BME280;27078;46.428;6.256;2023-02-11T05:04:57;98303.50;;;-2.02;100.00
41334;BME280;27078;46.428;6.256;2023-02-11T05:07:22;98301.84;;;-2.14;100.00
41334;BME280;27078;46.428;6.256;2023-02-11T05:09:48;98306.22;;;-2.18;100.00
41334;BME280;27078;46.428;6.256;2023-02-11T05:12:13;98306.28;;;-2.26;100.00
41334;BME280;27078;46.428;6.256;2023-02-11T05:14:39;98314.00;;;-2.18;100.00
41334;BME280;27078;46.428;6.256;2023-02-11T05:17:04;98312.34;;;-2.28;100.00
41334;BME280;27078;46.428;6.256;2023-02-11T05:19:29;98306.34;;;-2.36;100.00
41334;BME280;27078;46.428;6.256;2023-02-11T05:21:56;98300.38;;;-2.44;100.00
41334;BME280;27078;46.428;6.256;2023-02-11T05:24:21;98298.72;;;-2.55;100.00
41334;BME280;27078;46.428;6.256;2023-02-11T05:26:46;98304.91;;;-2.76;100.00
41334;BME280;27078;46.428;6.256;2023-02-11T05:29:12;98301.47;;;-2.78;100.00
41334;BME280;27078;46.428;6.256;2023-02-11T05:31:37;98299.72;;;-2.73;100.00
41334;BME280;27078;46.428;6.256;2023-02-11T05:34:02;98298.91;;;-2.79;100.00
41334;BME280;27078;46.428;6.256;2023-02-11T05:36:28;98297.13;;;-2.76;100.00
41334;BME280;27078;46.428;6.256;2023-02-11T05:38:54;98297.19;;;-2.82;100.00
41334;BME280;27078;46.428;6.256;2023-02-11T05:41:19;98297.19;;;-2.82;100.00
41334;BME280;27078;46.428;6.256;2023-02-11T05:43:47;98304.91;;;-2.73;100.00
41334;BME280;27078;46.428;6.256;2023-02-11T05:46:15;98299.72;;;-2.73;100.00
41334;BME280;27078;46.428;6.256;2023-02-11T05:48:41;98304.88;;;-2.70;100.00
41334;BME280;27078;46.428;6.256;2023-02-11T05:51:06;98291.06;;;-2.69;100.00
41334;BME280;27078;46.428;6.256;2023-02-11T05:53:31;98288.50;;;-2.69;100.00
41334;BME280;27078;46.428;6.256;2023-02-11T05:55:56;98295.38;;;-2.64;100.00
41334;BME280;27078;46.428;6.256;2023-02-11T05:58:22;98291.88;;;-2.65;100.00
41334;BME280;27078;46.428;6.256;2023-02-11T06:00:47;98285.91;;;-2.72;100.00
41334;BME280;27078;46.428;6.256;2023-02-11T06:03:12;98291.97;;;-2.77;100.00
41334;BME280;27078;46.428;6.256;2023-02-11T06:05:38;98281.66;;;-2.80;100.00
41334;BME280;27078;46.428;6.256;2023-02-11T06:08:03;98284.25;;;-2.82;100.00
41334;BME280;27078;46.428;6.256;2023-02-11T06:10:29;98286.00;;;-2.87;100.00
41334;BME280;27078;46.428;6.256;2023-02-11T06:12:54;98289.47;;;-2.94;100.00
41334;BME280;27078;46.428;6.256;2023-02-11T06:15:19;98295.56;;;-3.01;100.00
41334;BME280;27078;46.428;6.256;2023-02-11T06:17:45;98294.69;;;-2.97;100.00
41334;BME280;27078;46.428;6.256;2023-02-11T06:20:10;98296.38;;;-2.93;100.00
41334;BME280;27078;46.428;6.256;2023-02-11T06:22:36;98295.47;;;-2.86;100.00
41334;BME280;27078;46.428;6.256;2023-02-11T06:25:02;98299.78;;;-2.85;100.00
41334;BME280;27078;46.428;6.256;2023-02-11T06:27:28;98289.41;;;-2.79;100.00
41334;BME280;27078;46.428;6.256;2023-02-11T06:29:53;98292.84;;;-2.80;100.00
41334;BME280;27078;46.428;6.256;2023-02-11T06:32:19;98296.28;;;-2.78;100.00
41334;BME280;27078;46.428;6.256;2023-02-11T06:34:45;98289.41;;;-2.79;100.00
41334;BME280;27078;46.428;6.256;2023-02-11T06:37:11;98287.69;;;-2.77;100.00
41334;BME280;27078;46.428;6.256;2023-02-11T06:39:36;98290.22;;;-2.71;100.00
41334;BME280;27078;46.428;6.256;2023-02-11T06:42:02;98292.78;;;-2.64;100.00
41334;BME280;27078;46.428;6.256;2023-02-11T06:44:27;98296.22;;;-2.62;100.00
41334;BME280;27078;46.428;6.256;2023-02-11T06:46:52;98297.94;;;-2.64;100.00
41334;BME280;27078;46.428;6.256;2023-02-11T06:49:18;98296.19;;;-2.59;100.00
41334;BME280;27078;46.428;6.256;2023-02-11T06:51:43;98294.44;;;-2.60;100.00
41334;BME280;27078;46.428;6.256;2023-02-11T06:54:10;98303.06;;;-2.57;100.00
41334;BME280;27078;46.428;6.256;2023-02-11T06:56:38;98305.63;;;-2.57;100.00
41334;BME280;27078;46.428;6.256;2023-02-11T06:59:03;98316.88;;;-2.59;100.00
41334;BME280;27078;46.428;6.256;2023-02-11T07:01:29;98309.03;;;-2.50;100.00
41334;BME280;27078;46.428;6.256;2023-02-11T07:03:54;98320.19;;;-2.42;100.00
41334;BME280;27078;46.428;6.256;2023-02-11T07:06:22;98304.63;;;-2.34;100.00
41334;BME280;27078;46.428;6.256;2023-02-11T07:08:48;98327.06;;;-2.35;100.00
41334;BME280;27078;46.428;6.256;2023-02-11T07:11:19;98323.53;;;-2.28;100.00
41334;BME280;27078;46.428;6.256;2023-02-11T07:13:46;98321.75;;;-2.21;100.00
41334;BME280;27078;46.428;6.256;2023-02-11T07:16:14;98324.31;;;-2.13;100.00
41334;BME280;27078;46.428;6.256;2023-02-11T07:18:40;98332.88;;;-2.05;100.00
41334;BME280;27078;46.428;6.256;2023-02-11T07:21:07;98340.59;;;-2.00;100.00
41334;BME280;27078;46.428;6.256;2023-02-11T07:23:34;98343.97;;;-1.94;100.00
41334;BME280;27078;46.428;6.256;2023-02-11T07:26:03;98337.81;;;-1.80;100.00
41334;BME280;27078;46.428;6.256;2023-02-11T07:28:29;98349.81;;;-1.70;100.00
41334;BME280;27078;46.428;6.256;2023-02-11T07:30:54;98346.38;;;-1.74;100.00
41334;BME280;27078;46.428;6.256;2023-02-11T07:33:20;98354.03;;;-1.63;100.00
41334;BME280;27078;46.428;6.256;2023-02-11T07:35:45;98360.84;;;-1.53;100.00
41334;BME280;27078;46.428;6.256;2023-02-11T07:38:10;98357.31;;;-1.42;100.00
41334;BME280;27078;46.428;6.256;2023-02-11T07:40:36;98359.78;;;-1.32;100.00
41334;BME280;27078;46.428;6.256;2023-02-11T07:43:01;98359.72;;;-1.27;100.00
41334;BME280;27078;46.428;6.256;2023-02-11T07:45:27;98371.75;;;-1.20;100.00
41334;BME280;27078;46.428;6.256;2023-02-11T07:47:52;98366.38;;;-1.06;100.00
41334;BME280;27078;46.428;6.256;2023-02-11T07:50:17;98375.84;;;-0.99;100.00
41334;BME280;27078;46.428;6.256;2023-02-11T07:52:43;98380.94;;;-0.93;100.00
41334;BME280;27078;46.428;6.256;2023-02-11T07:55:08;98362.72;;;-0.88;100.00
41334;BME280;27078;46.428;6.256;2023-02-11T07:57:34;98371.28;;;-0.82;100.00
41334;BME280;27078;46.428;6.256;2023-02-11T08:00:00;98375.34;;;-0.62;100.00
41334;BME280;27078;46.428;6.256;2023-02-11T08:02:25;98383.72;;;-0.40;100.00
41334;BME280;27078;46.428;6.256;2023-02-11T08:04:51;98378.28;;;-0.25;100.00
41334;BME280;27078;46.428;6.256;2023-02-11T08:07:17;98376.28;;;-0.07;100.00
41334;BME280;27078;46.428;6.256;2023-02-11T08:09:42;98375.25;;;0.03;97.88
41334;BME280;27078;46.428;6.256;2023-02-11T08:12:08;98377.66;;;0.15;100.00
41334;BME280;27078;46.428;6.256;2023-02-11T08:14:33;98381.78;;;0.27;99.84
41334;BME280;27078;46.428;6.256;2023-02-11T08:16:58;98372.09;;;0.37;97.56
41334;BME280;27078;46.428;6.256;2023-02-11T08:19:24;98370.13;;;0.51;97.10
41334;BME280;27078;46.428;6.256;2023-02-11T08:21:49;98374.13;;;0.68;96.07
41334;BME280;27078;46.428;6.256;2023-02-11T08:24:15;98370.34;;;0.86;99.64
41334;BME280;27078;46.428;6.256;2023-02-11T08:26:41;98364.81;;;1.02;97.62
41334;BME280;27078;46.428;6.256;2023-02-11T08:29:11;98361.91;;;1.16;99.31
41334;BME280;27078;46.428;6.256;2023-02-11T08:31:39;98364.94;;;1.37;100.00
41334;BME280;27078;46.428;6.256;2023-02-11T08:34:05;98362.75;;;1.59;100.00
41334;BME280;27078;46.428;6.256;2023-02-11T08:36:33;98366.63;;;1.78;100.00
41334;BME280;27078;46.428;6.256;2023-02-11T08:39:00;98361.16;;;1.91;98.48
41334;BME280;27078;46.428;6.256;2023-02-11T08:41:30;98365.44;;;1.92;100.00
41334;BME280;27078;46.428;6.256;2023-02-11T08:43:55;98369.56;;;2.02;100.00
41334;BME280;27078;46.428;6.256;2023-02-11T08:46:21;98372.00;;;2.08;100.00
41334;BME280;27078;46.428;6.256;2023-02-11T08:48:46;98375.19;;;2.19;100.00
41334;BME280;27078;46.428;6.256;2023-02-11T08:51:18;98374.06;;;2.31;100.00
41334;BME280;27078;46.428;6.256;2023-02-11T08:53:44;98369.44;;;2.41;100.00
41334;BME280;27078;46.428;6.256;2023-02-11T08:56:10;98376.28;;;2.47;100.00
41334;BME280;27078;46.428;6.256;2023-02-11T08:58:36;98375.72;;;2.67;100.00
41334;BME280;27078;46.428;6.256;2023-02-11T09:01:11;98383.25;;;2.79;100.00
41334;BME280;27078;46.428;6.256;2023-02-11T09:03:37;98389.97;;;2.88;100.00
41334;BME280;27078;46.428;6.256;2023-02-11T09:06:04;98392.38;;;2.95;100.00
41334;BME280;27078;46.428;6.256;2023-02-11T09:08:30;98386.16;;;2.99;99.51
41334;BME280;27078;46.428;6.256;2023-02-11T09:10:56;98386.72;;;3.11;100.00
41334;BME280;27078;46.428;6.256;2023-02-11T09:13:21;98385.84;;;3.12;100.00
41334;BME280;27078;46.428;6.256;2023-02-11T09:15:47;98389.25;;;3.14;98.10
41334;BME280;27078;46.428;6.256;2023-02-11T09:18:12;98390.63;;;3.27;98.92
41334;BME280;27078;46.428;6.256;2023-02-11T09:20:38;98389.44;;;3.37;95.60
41334;BME280;27078;46.428;6.256;2023-02-11T09:23:03;98393.56;;;3.46;97.41
41334;BME280;27078;46.428;6.256;2023-02-11T09:25:29;98386.41;;;3.51;95.62
41334;BME280;27078;46.428;6.256;2023-02-11T09:27:54;98387.00;;;3.61;94.87
41334;BME280;27078;46.428;6.256;2023-02-11T09:30:20;98391.94;;;3.70;92.29
41334;BME280;27078;46.428;6.256;2023-02-11T09:32:45;98395.84;;;3.85;93.22
41334;BME280;27078;46.428;6.256;2023-02-11T09:35:10;98386.88;;;3.94;91.84
41334;BME280;27078;46.428;6.256;2023-02-11T09:37:36;98392.91;;;3.96;89.96
41334;BME280;27078;46.428;6.256;2023-02-11T09:40:01;98394.44;;;4.03;88.27
41334;BME280;27078;46.428;6.256;2023-02-11T09:45:02;98402.28;;;4.29;86.57
41334;BME280;27078;46.428;6.256;2023-02-11T09:47:33;98394.97;;;4.41;85.52
41334;BME280;27078;46.428;6.256;2023-02-11T09:50:03;98400.19;;;4.41;83.45
41334;BME280;27078;46.428;6.256;2023-02-11T09:55:02;98398.66;;;4.60;84.64
41334;BME280;27078;46.428;6.256;2023-02-11T09:57:33;98404.38;;;4.72;83.79
41334;BME280;27078;46.428;6.256;2023-02-11T10:00:19;98406.09;;;4.73;85.84
41334;BME280;27078;46.428;6.256;2023-02-11T10:03:00;98414.56;;;4.81;85.21
41334;BME280;27078;46.428;6.256;2023-02-11T10:20:01;98403.97;;;5.33;79.41
41334;BME280;27078;46.428;6.256;2023-02-11T10:22:36;98414.28;;;5.37;80.92
41334;BME280;27078;46.428;6.256;2023-02-11T10:25:36;98418.13;;;5.27;80.40
41334;BME280;27078;46.428;6.256;2023-02-11T10:28:10;98417.13;;;5.31;80.53
41334;BME280;27078;46.428;6.256;2023-02-11T10:30:41;98409.84;;;5.39;82.10
41334;BME280;27078;46.428;6.256;2023-02-11T10:33:12;98421.75;;;5.48;83.56
41334;BME280;27078;46.428;6.256;2023-02-11T10:35:39;98415.19;;;5.60;79.32
41334;BME280;27078;46.428;6.256;2023-02-11T10:38:07;98417.38;;;5.48;80.22
41334;BME280;27078;46.428;6.256;2023-02-11T10:40:33;98419.97;;;5.72;78.88
41334;BME280;27078;46.428;6.256;2023-02-11T10:43:02;98411.31;;;5.70;79.18
41334;BME280;27078;46.428;6.256;2023-02-11T10:45:32;98406.94;;;5.70;78.22
41334;BME280;27078;46.428;6.256;2023-02-11T10:48:00;98408.94;;;5.64;80.90
41334;BME280;27078;46.428;6.256;2023-02-11T10:50:29;98404.72;;;5.60;79.94
41334;BME280;27078;46.428;6.256;2023-02-11T10:53:16;98402.06;;;5.83;80.60
41334;BME280;27078;46.428;6.256;2023-02-11T10:55:55;98394.41;;;6.01;80.39
41334;BME280;27078;46.428;6.256;2023-02-11T10:58:29;98400.41;;;6.04;77.59
41334;BME280;27078;46.428;6.256;2023-02-11T11:00:58;98398.63;;;6.05;78.05
41334;BME280;27078;46.428;6.256;2023-02-11T11:03:26;98389.97;;;6.03;78.78
41334;BME280;27078;46.428;6.256;2023-02-11T11:06:04;98386.66;;;6.20;78.79
41334;BME280;27078;46.428;6.256;2023-02-11T11:08:45;98372.75;;;6.18;73.04
41334;BME280;27078;46.428;6.256;2023-02-11T11:11:19;98375.97;;;5.80;76.29
41334;BME280;27078;46.428;6.256;2023-02-11T11:16:23;98366.53;;;6.20;74.96
41334;BME280;27078;46.428;6.256;2023-02-11T11:19:13;98362.84;;;6.24;76.03
41334;BME280;27078;46.428;6.256;2023-02-11T11:21:42;98356.47;;;6.52;73.76
41334;BME280;27078;46.428;6.256;2023-02-11T11:26:43;98349.22;;;6.37;75.53
41334;BME280;27078;46.428;6.256;2023-02-11T11:29:18;98346.34;;;6.43;75.17
41334;BME280;27078;46.428;6.256;2023-02-11T11:31:55;98343.78;;;6.41;74.84
41334;BME280;27078;46.428;6.256;2023-02-11T11:36:54;98339.53;;;6.59;71.74
41334;BME280;27078;46.428;6.256;2023-02-11T11:39:29;98335.34;;;6.76;72.77
41334;BME280;27078;46.428;6.256;2023-02-11T11:42:26;98327.84;;;6.66;73.94
41334;BME280;27078;46.428;6.256;2023-02-11T11:45:19;98338.47;;;6.84;70.23
41334;BME280;27078;46.428;6.256;2023-02-11T11:47:53;98333.09;;;6.87;72.10
41334;BME280;27078;46.428;6.256;2023-02-11T11:50:39;98325.50;;;7.00;71.38
41334;BME280;27078;46.428;6.256;2023-02-11T11:53:13;98312.59;;;6.75;70.88
41334;BME280;27078;46.428;6.256;2023-02-11T11:55:44;98312.38;;;7.00;71.27
41334;BME280;27078;46.428;6.256;2023-02-11T11:58:15;98302.06;;;6.95;70.79
41334;BME280;27078;46.428;6.256;2023-02-11T12:00:52;98299.50;;;6.93;71.30
41334;BME280;27078;46.428;6.256;2023-02-11T12:06:11;98284.81;;;7.27;72.30
41334;BME280;27078;46.428;6.256;2023-02-11T12:09:04;98278.91;;;7.60;73.75
41334;BME280;27078;46.428;6.256;2023-02-11T12:14:28;98279.31;;;7.70;69.72
41334;BME280;27078;46.428;6.256;2023-02-11T12:20:11;98269.81;;;7.85;66.38
41334;BME280;27078;46.428;6.256;2023-02-11T12:25:21;98264.06;;;8.13;65.63
41334;BME280;27078;46.428;6.256;2023-02-11T12:28:19;98262.03;;;8.01;66.26
41334;BME280;27078;46.428;6.256;2023-02-11T12:33:59;98249.34;;;8.09;65.39
41334;BME280;27078;46.428;6.256;2023-02-11T12:56:01;98232.38;;;7.62;62.79
41334;BME280;27078;46.428;6.256;2023-02-11T12:58:32;98234.03;;;7.27;64.92
41334;BME280;27078;46.428;6.256;2023-02-11T13:01:04;98221.63;;;7.67;65.65
41334;BME280;27078;46.428;6.256;2023-02-11T13:03:46;98220.53;;;7.88;64.78
41334;BME280;27078;46.428;6.256;2023-02-11T13:06:16;98217.63;;;7.94;63.66
41334;BME280;27078;46.428;6.256;2023-02-11T13:08:47;98219.16;;;7.99;63.36
41334;BME280;27078;46.428;6.256;2023-02-11T13:11:19;98220.31;;;8.10;61.50
41334;BME280;27078;46.428;6.256;2023-02-11T13:16:31;98222.25;;;8.07;60.14
41334;BME280;27078;46.428;6.256;2023-02-11T13:32:23;98189.94;;;7.87;62.47
41334;BME280;27078;46.428;6.256;2023-02-11T13:37:27;98176.00;;;7.85;61.66
41334;BME280;27078;46.428;6.256;2023-02-11T13:42:22;98174.97;;;7.88;61.38
41334;BME280;27078;46.428;6.256;2023-02-11T13:44:47;98173.72;;;7.95;60.79
41334;BME280;27078;46.428;6.256;2023-02-11T13:47:30;98175.34;;;7.80;60.78
41334;BME280;27078;46.428;6.256;2023-02-11T13:49:59;98172.19;;;7.73;61.10
41334;BME280;27078;46.428;6.256;2023-02-11T13:54:56;98180.06;;;7.56;61.98
41334;BME280;27078;46.428;6.256;2023-02-11T13:57:30;98179.59;;;7.65;63.49
41334;BME280;27078;46.428;6.256;2023-02-11T13:59:58;98176.50;;;7.74;64.07
41334;BME280;27078;46.428;6.256;2023-02-11T14:02:32;98169.78;;;7.86;64.96
41334;BME280;27078;46.428;6.256;2023-02-11T14:08:14;98169.97;;;7.83;62.76
41334;BME280;27078;46.428;6.256;2023-02-11T14:11:03;98171.88;;;7.80;63.63
41334;BME280;27078;46.428;6.256;2023-02-11T14:13:36;98166.09;;;7.73;62.39
41334;BME280;27078;46.428;6.256;2023-02-11T14:16:22;98166.75;;;7.77;64.59
41334;BME280;27078;46.428;6.256;2023-02-11T14:21:31;98164.84;;;7.80;63.04
41334;BME280;27078;46.428;6.256;2023-02-11T14:29:16;98169.31;;;7.43;64.93
41334;BME280;27078;46.428;6.256;2023-02-11T14:40:06;98162.34;;;7.60;64.79
41334;BME280;27078;46.428;6.256;2023-02-11T14:42:35;98167.28;;;7.48;64.03
41334;BME280;27078;46.428;6.256;2023-02-11T14:45:05;98169.13;;;7.46;66.82
41334;BME280;27078;46.428;6.256;2023-02-11T14:47:52;98171.28;;;7.38;65.54
41334;BME280;27078;46.428;6.256;2023-02-11T14:50:23;98167.59;;;7.42;67.11
41334;BME280;27078;46.428;6.256;2023-02-11T14:52:51;98165.91;;;7.41;66.77
41334;BME280;27078;46.428;6.256;2023-02-11T14:55:28;98164.34;;;7.37;68.01
41334;BME280;27078;46.428;6.256;2023-02-11T14:58:15;98166.31;;;7.32;67.86
41334;BME280;27078;46.428;6.256;2023-02-11T15:00:59;98169.91;;;7.31;67.26
41334;BME280;27078;46.428;6.256;2023-02-11T15:03:31;98169.41;;;7.23;67.82
41334;BME280;27078;46.428;6.256;2023-02-11T15:05:59;98166.78;;;7.23;66.44
41334;BME280;27078;46.428;6.256;2023-02-11T15:08:26;98164.50;;;7.15;66.58
41334;BME280;27078;46.428;6.256;2023-02-11T15:10:53;98156.00;;;7.10;66.67
41334;BME280;27078;46.428;6.256;2023-02-11T15:13:22;98155.16;;;7.09;69.14
41334;BME280;27078;46.428;6.256;2023-02-11T15:15:57;98156.13;;;7.07;69.64
41334;BME280;27078;46.428;6.256;2023-02-11T15:18:32;98157.69;;;7.11;69.60
41334;BME280;27078;46.428;6.256;2023-02-11T15:20:59;98163.28;;;7.05;70.41
41334;BME280;27078;46.428;6.256;2023-02-11T15:23:26;98157.31;;;7.01;71.30